Time;durP1;ratioP1;P1;durP2;ratioP2;P2;SDS_P1;SDS_P2;PMS_P1;PMS_P2;Temp;Humidity;BMP_temperature;BMP_pressure;BME280_temperature;BME280_humidity;BME280_pressure;Samples;Min_cycle;Max_cycle;Signal;HPM_P1;HPM_P2
2022/05/20 00:00:07;;;;;;;20.03;17.67;;;21.00;83.00;;;;;;5009541;28;20464;-68
2022/05/20 00:02:34;;;;;;;22.33;19.93;;;21.00;83.10;;;;;;4995855;28;20472;-68
2022/05/20 00:05:00;;;;;;;21.60;18.33;;;21.00;83.20;;;;;;5011878;28;20452;-67
2022/05/20 00:07:27;;;;;;;20.60;18.43;;;21.00;83.20;;;;;;5015306;28;20838;-67
2022/05/20 00:09:55;;;;;;;20.97;18.87;;;21.00;83.20;;;;;;5015116;28;20463;-67
2022/05/20 00:12:22;;;;;;;21.30;18.37;;;21.00;83.10;;;;;;5015396;28;20968;-67
2022/05/20 00:14:49;;;;;;;20.53;17.80;;;20.90;83.00;;;;;;5015088;28;20454;-67
2022/05/20 00:17:15;;;;;;;22.00;19.13;;;20.90;83.00;;;;;;5015396;28;20487;-67
2022/05/20 00:19:42;;;;;;;20.43;18.43;;;20.90;82.90;;;;;;5015284;28;20443;-67
2022/05/20 00:22:10;;;;;;;20.67;18.67;;;20.90;82.90;;;;;;5014707;28;20852;-67
2022/05/20 00:25:45;;;;;;;21.03;18.87;;;21.00;83.00;;;;;;5015157;28;20851;-67
2022/05/20 00:27:26;;;;;;;19.83;17.90;;;21.00;83.00;;;;;;5014697;28;20554;-67
2022/05/20 00:29:54;;;;;;;19.13;17.33;;;21.00;83.10;;;;;;5015893;28;20483;-67
2022/05/20 00:32:21;;;;;;;17.80;16.00;;;21.00;83.10;;;;;;5015892;28;20459;-66
2022/05/20 00:34:48;;;;;;;21.07;18.10;;;21.00;83.00;;;;;;5017022;28;20458;-66
2022/05/20 00:37:14;;;;;;;21.00;18.83;;;21.00;83.10;;;;;;5017338;28;20487;-67
2022/05/20 00:39:41;;;;;;;21.43;18.40;;;21.00;83.00;;;;;;5017307;28;20462;-66
2022/05/20 00:42:13;;;;;;;21.70;19.50;;;21.00;83.00;;;;;;5015335;28;20448;-66
2022/05/20 00:44:41;;;;;;;20.27;18.17;;;20.90;82.80;;;;;;5015476;28;20452;-66
2022/05/20 00:47:08;;;;;;;20.70;18.60;;;21.00;83.00;;;;;;5014911;28;20525;-66
2022/05/20 00:49:36;;;;;;;21.97;19.70;;;21.00;83.20;;;;;;5014588;28;20458;-66
2022/05/20 00:52:05;;;;;;;19.43;17.40;;;21.00;83.60;;;;;;5014610;28;20447;-67
2022/05/20 00:54:36;;;;;;;23.43;20.30;;;21.00;83.80;;;;;;5014630;28;20448;-67
2022/05/20 00:57:06;;;;;;;21.73;19.53;;;21.00;83.50;;;;;;5014301;28;20478;-67
2022/05/20 00:59:37;;;;;;;22.97;20.67;;;20.90;83.20;;;;;;5014316;28;20447;-67
2022/05/20 01:02:09;;;;;;;24.03;20.20;;;20.80;83.70;;;;;;5014117;28;20458;-67
2022/05/20 01:04:37;;;;;;;23.43;21.03;;;20.70;84.10;;;;;;5013922;28;20444;-67
2022/05/20 01:07:05;;;;;;;22.27;19.50;;;20.70;84.70;;;;;;5014552;28;20447;-67
2022/05/20 01:09:33;;;;;;;22.90;19.80;;;20.70;85.40;;;;;;5014381;28;20451;-67
2022/05/20 01:12:01;;;;;;;25.27;22.57;;;20.70;85.50;;;;;;5013975;28;20440;-67
2022/05/20 01:14:28;;;;;;;25.43;22.90;;;20.70;85.60;;;;;;5013895;28;20816;-67
2022/05/20 01:16:55;;;;;;;25.40;22.83;;;20.70;85.60;;;;;;5014341;28;20487;-66
2022/05/20 01:19:31;;;;;;;27.40;24.50;;;20.60;85.50;;;;;;5014014;28;20482;-66
2022/05/20 01:21:58;;;;;;;26.90;22.57;;;20.70;85.50;;;;;;5014206;28;20443;-67
2022/05/20 01:24:27;;;;;;;25.10;22.80;;;20.70;85.60;;;;;;5013980;28;20460;-67
2022/05/20 01:26:54;;;;;;;28.13;25.27;;;20.70;85.60;;;;;;5013788;28;20501;-67
2022/05/20 01:29:21;;;;;;;24.83;22.20;;;20.70;85.50;;;;;;5013977;28;20439;-67
2022/05/20 01:31:47;;;;;;;27.93;25.33;;;20.70;85.40;;;;;;5013892;28;20458;-67
2022/05/20 01:34:14;;;;;;;28.67;25.67;;;20.70;85.30;;;;;;5013857;28;20450;-67
2022/05/20 01:36:41;;;;;;;27.07;24.47;;;20.70;85.10;;;;;;5013522;28;21009;-67
2022/05/20 01:39:08;;;;;;;26.40;23.70;;;20.70;85.00;;;;;;5013902;28;20475;-67
2022/05/20 01:41:41;;;;;;;27.87;25.20;;;20.60;84.90;;;;;;5013621;28;20448;-66
2022/05/20 01:44:12;;;;;;;29.00;26.10;;;20.60;84.90;;;;;;5014082;28;20432;-67
2022/05/20 01:46:42;;;;;;;27.53;24.67;;;20.50;84.90;;;;;;5013937;28;20443;-67
2022/05/20 01:49:19;;;;;;;29.83;26.63;;;20.50;84.70;;;;;;5013805;28;20498;-67
2022/05/20 01:51:50;;;;;;;30.30;27.20;;;20.40;84.90;;;;;;5013155;28;20439;-67
2022/05/20 01:54:24;;;;;;;28.03;25.07;;;20.40;85.10;;;;;;5013532;28;20451;-67
2022/05/20 01:56:57;;;;;;;29.10;26.20;;;20.40;85.10;;;;;;5013449;28;20863;-67
2022/05/20 01:59:29;;;;;;;29.47;26.43;;;20.30;85.20;;;;;;5013195;28;20952;-67
2022/05/20 02:02:01;;;;;;;31.20;28.20;;;20.30;85.60;;;;;;5013290;28;20459;-67
2022/05/20 02:04:32;;;;;;;28.70;25.90;;;20.20;85.50;;;;;;5013926;28;20435;-67
2022/05/20 02:07:06;;;;;;;29.60;26.63;;;20.20;85.70;;;;;;5013552;28;20458;-67
2022/05/20 02:09:40;;;;;;;29.80;26.70;;;20.10;85.60;;;;;;5013198;28;20435;-67
2022/05/20 02:12:12;;;;;;;29.67;26.77;;;20.10;85.40;;;;;;5013493;28;20440;-67
2022/05/20 02:14:43;;;;;;;28.00;25.40;;;20.10;85.50;;;;;;5013574;28;20444;-67
2022/05/20 02:17:14;;;;;;;29.40;26.53;;;20.10;85.50;;;;;;5013391;28;20490;-67
2022/05/20 02:19:45;;;;;;;28.57;25.50;;;20.00;85.60;;;;;;4995322;28;20425;-67
2022/05/20 02:22:15;;;;;;;29.63;26.63;;;20.00;85.80;;;;;;5016675;28;20941;-67
2022/05/20 02:24:44;;;;;;;29.87;26.87;;;20.00;85.80;;;;;;5017445;28;20436;-67
2022/05/20 02:27:16;;;;;;;29.50;26.73;;;20.00;85.80;;;;;;5016411;28;20467;-67
2022/05/20 02:29:48;;;;;;;31.07;27.90;;;19.90;85.70;;;;;;5017436;28;20442;-66
2022/05/20 02:32:21;;;;;;;30.73;27.73;;;19.90;85.70;;;;;;4997680;28;20898;-66
2022/05/20 02:34:50;;;;;;;28.53;25.73;;;19.80;85.80;;;;;;5003310;28;20834;-66
2022/05/20 02:37:23;;;;;;;29.47;26.37;;;19.80;85.90;;;;;;5017230;28;20494;-66
2022/05/20 02:39:51;;;;;;;29.23;25.50;;;19.70;86.00;;;;;;5016684;28;20450;-66
2022/05/20 02:42:19;;;;;;;30.63;27.47;;;19.70;86.40;;;;;;5016974;28;20847;-67
2022/05/20 02:44:46;;;;;;;29.17;26.17;;;19.70;86.70;;;;;;5017092;28;20451;-67
2022/05/20 02:47:13;;;;;;;28.07;25.37;;;19.70;86.90;;;;;;5016894;28;20855;-67
2022/05/20 02:49:40;;;;;;;29.47;26.57;;;19.60;87.00;;;;;;5017173;28;20443;-67
2022/05/20 02:52:08;;;;;;;29.40;26.43;;;19.60;87.20;;;;;;5017087;28;20451;-67
2022/05/20 02:54:35;;;;;;;27.70;25.00;;;19.60;87.50;;;;;;5017142;28;20458;-67
2022/05/20 02:57:03;;;;;;;29.13;26.30;;;19.60;87.60;;;;;;5016926;28;20490;-66
2022/05/20 03:05:00;;;;;;;26.80;23.03;;;19.60;88.20;;;;;;4997620;28;20412;-67
2022/05/20 03:07:27;;;;;;;28.97;26.10;;;19.60;88.30;;;;;;4997160;28;21001;-67
2022/05/20 03:09:54;;;;;;;31.17;27.93;;;19.60;88.50;;;;;;4997179;28;20467;-67
2022/05/20 03:12:20;;;;;;;30.20;27.20;;;19.60;88.50;;;;;;4997209;28;20460;-67
2022/05/20 03:14:49;;;;;;;32.17;28.73;;;19.60;88.30;;;;;;4996764;28;20812;-67
2022/05/20 03:17:15;;;;;;;31.10;28.00;;;19.50;88.10;;;;;;4996836;28;20495;-67
2022/05/20 03:19:42;;;;;;;30.53;27.40;;;19.50;88.00;;;;;;4997019;28;20440;-67
2022/05/20 03:22:09;;;;;;;28.83;25.93;;;19.40;87.80;;;;;;4996741;28;20444;-67
2022/05/20 03:24:37;;;;;;;31.03;27.90;;;19.40;87.90;;;;;;4996907;28;20458;-67
2022/05/20 03:27:05;;;;;;;30.07;27.03;;;19.40;88.30;;;;;;4996727;28;20507;-67
2022/05/20 03:29:32;;;;;;;29.47;26.37;;;19.30;88.70;;;;;;4996589;28;20961;-67
2022/05/20 03:32:00;;;;;;;28.20;25.30;;;19.30;89.30;;;;;;4995620;28;20452;-67
2022/05/20 03:34:27;;;;;;;29.13;26.20;;;19.30;89.50;;;;;;4996444;28;20823;-67
2022/05/20 03:36:53;;;;;;;29.20;26.07;;;19.30;89.70;;;;;;4996534;28;20473;-67
2022/05/20 03:39:22;;;;;;;31.63;28.47;;;19.30;90.00;;;;;;4996683;28;20454;-67
2022/05/20 03:41:49;;;;;;;31.40;28.03;;;19.40;90.30;;;;;;4996300;28;20965;-67
2022/05/20 03:44:17;;;;;;;30.90;27.83;;;19.40;90.60;;;;;;4996590;28;20452;-67
2022/05/20 03:46:46;;;;;;;32.07;28.87;;;19.40;90.80;;;;;;4996420;28;20448;-68
2022/05/20 03:49:15;;;;;;;30.37;27.37;;;19.40;90.80;;;;;;4996421;28;20476;-67
2022/05/20 03:51:45;;;;;;;31.77;28.57;;;19.40;91.00;;;;;;4996450;28;20478;-67
2022/05/20 03:54:12;;;;;;;31.07;27.67;;;19.40;91.00;;;;;;4996387;28;20452;-67
2022/05/20 03:56:40;;;;;;;34.40;28.30;;;19.40;90.90;;;;;;4996331;28;20459;-67
2022/05/20 03:59:08;;;;;;;33.80;30.13;;;19.40;91.00;;;;;;4996264;28;20507;-67
2022/05/20 04:04:21;;;;;;;32.40;29.20;;;19.50;91.40;;;;;;4996365;28;20404;-67
2022/05/20 04:06:48;;;;;;;31.63;28.30;;;19.50;91.40;;;;;;4995892;28;20823;-67
2022/05/20 04:09:15;;;;;;;33.10;29.80;;;19.50;91.40;;;;;;4996112;28;20455;-67
2022/05/20 04:11:41;;;;;;;30.93;27.87;;;19.50;91.40;;;;;;4995888;28;20456;-67
2022/05/20 04:14:09;;;;;;;35.67;30.80;;;19.50;91.50;;;;;;4995841;28;20452;-67
2022/05/20 04:16:36;;;;;;;34.03;30.60;;;19.50;91.50;;;;;;4996263;28;20448;-67
2022/05/20 04:19:04;;;;;;;32.63;29.43;;;19.50;91.50;;;;;;4996002;28;20484;-67
2022/05/20 04:21:32;;;;;;;36.27;32.53;;;19.50;91.50;;;;;;4996697;28;20452;-67
2022/05/20 04:23:58;;;;;;;32.93;29.50;;;19.50;91.50;;;;;;4996660;28;20988;-67
2022/05/20 04:26:25;;;;;;;35.00;31.17;;;19.50;91.90;;;;;;4996648;28;20805;-67
2022/05/20 04:28:52;;;;;;;34.40;30.93;;;19.60;91.70;;;;;;4996817;28;20471;-67
2022/05/20 04:31:19;;;;;;;33.57;30.27;;;19.60;91.80;;;;;;4996443;28;20980;-67
2022/05/20 04:33:45;;;;;;;33.80;30.30;;;19.70;91.80;;;;;;4995711;28;20816;-67
2022/05/20 04:36:12;;;;;;;31.60;28.40;;;19.70;91.70;;;;;;4995588;28;20444;-68
2022/05/20 04:38:40;;;;;;;35.77;32.17;;;19.70;91.60;;;;;;4995638;28;20476;-67
2022/05/20 04:49:19;;;;;;;32.87;29.73;;;19.90;91.60;;;;;;4995230;28;20447;-67
2022/05/20 04:51:46;;;;;;;30.90;27.60;;;19.90;91.50;;;;;;4995263;28;20444;-67
2022/05/20 04:56:58;;;;;;;29.13;26.20;;;20.00;91.50;;;;;;4995443;28;20785;-67
2022/05/20 04:59:25;;;;;;;32.90;29.47;;;20.00;91.10;;;;;;4995068;28;20495;-67
2022/05/20 05:01:52;;;;;;;29.23;26.07;;;20.10;91.20;;;;;;4994732;28;20860;-67
2022/05/20 05:04:20;;;;;;;29.77;26.67;;;20.10;91.20;;;;;;4995110;28;20455;-67
2022/05/20 05:06:48;;;;;;;26.67;23.80;;;20.20;91.10;;;;;;4995255;28;20457;-67
2022/05/20 05:09:16;;;;;;;29.63;26.87;;;20.20;90.80;;;;;;4994855;28;20464;-67
2022/05/20 05:11:43;;;;;;;28.33;25.03;;;20.30;90.60;;;;;;4994952;28;20479;-67
2022/05/20 05:14:12;;;;;;;29.87;26.77;;;20.30;90.60;;;;;;4995937;28;20448;-68
2022/05/20 05:16:39;;;;;;;28.93;26.03;;;20.40;90.40;;;;;;4994846;28;20448;-67
2022/05/20 05:19:06;;;;;;;31.47;26.33;;;20.40;90.30;;;;;;4994658;28;20488;-67
2022/05/20 05:21:33;;;;;;;29.67;26.57;;;20.50;90.20;;;;;;4994760;28;20467;-67
2022/05/20 05:24:00;;;;;;;30.23;26.97;;;20.60;90.00;;;;;;4994428;28;20803;-67
2022/05/20 05:26:29;;;;;;;30.90;27.83;;;20.60;90.10;;;;;;4994653;28;20449;-67
2022/05/20 05:28:57;;;;;;;32.63;29.50;;;20.70;90.00;;;;;;4994478;28;20515;-67
2022/05/20 05:31:24;;;;;;;30.67;27.70;;;20.70;90.00;;;;;;4994344;28;20527;-67
2022/05/20 05:33:51;;;;;;;30.53;25.60;;;20.80;89.80;;;;;;4994286;28;20985;-67
2022/05/20 05:36:19;;;;;;;29.90;26.70;;;20.90;89.40;;;;;;4994183;28;20841;-67
2022/05/20 05:38:46;;;;;;;29.77;26.30;;;20.90;88.80;;;;;;4995262;28;20484;-67
2022/05/20 05:41:13;;;;;;;32.03;27.30;;;20.90;88.60;;;;;;4994402;28;20475;-67
2022/05/20 05:43:41;;;;;;;26.17;23.40;;;20.90;88.30;;;;;;4994436;28;20444;-67
2022/05/20 05:46:07;;;;;;;25.57;23.07;;;20.90;88.40;;;;;;4994410;28;20468;-67
2022/05/20 05:48:34;;;;;;;32.83;29.47;;;21.00;88.70;;;;;;4994197;28;20468;-67
2022/05/20 05:51:02;;;;;;;33.60;27.77;;;21.10;88.80;;;;;;4995152;28;20459;-67
2022/05/20 05:53:28;;;;;;;26.27;23.70;;;21.10;88.60;;;;;;4993684;28;21012;-67
2022/05/20 05:55:59;;;;;;;25.67;23.13;;;21.20;88.30;;;;;;4993840;28;20463;-67
2022/05/20 05:58:26;;;;;;;25.87;23.23;;;21.20;87.80;;;;;;4994034;28;20521;-67
2022/05/20 06:00:56;;;;;;;23.73;21.27;;;21.20;87.20;;;;;;4993798;28;20480;-67
2022/05/20 06:03:23;;;;;;;24.40;21.80;;;21.30;86.60;;;;;;4994086;28;20459;-67
2022/05/20 06:05:50;;;;;;;22.33;19.17;;;21.40;86.40;;;;;;4994077;28;20449;-67
2022/05/20 06:08:17;;;;;;;24.40;21.80;;;21.40;85.90;;;;;;4993939;28;20471;-67
2022/05/20 06:10:45;;;;;;;27.40;23.93;;;21.50;85.70;;;;;;4994441;28;20818;-67
2022/05/20 06:13:12;;;;;;;30.07;26.20;;;21.60;85.10;;;;;;4994080;28;20980;-67
2022/05/20 06:15:39;;;;;;;27.70;24.90;;;21.80;84.90;;;;;;4993933;28;20458;-67
2022/05/20 06:18:08;;;;;;;22.27;19.97;;;21.80;84.20;;;;;;4993933;28;20487;-67
2022/05/20 06:20:35;;;;;;;29.03;26.10;;;21.90;83.60;;;;;;4993958;28;20456;-67
2022/05/20 06:23:02;;;;;;;32.20;27.40;;;22.00;83.30;;;;;;4994039;28;20487;-67
2022/05/20 06:25:29;;;;;;;29.70;26.63;;;22.10;83.50;;;;;;4993491;28;20946;-67
2022/05/20 06:28:04;;;;;;;30.07;26.60;;;22.20;83.00;;;;;;4994018;28;20522;-67
2022/05/20 06:30:32;;;;;;;32.70;29.30;;;22.30;82.90;;;;;;4993869;28;20463;-67
2022/05/20 06:32:58;;;;;;;31.90;27.63;;;22.40;83.20;;;;;;4993576;28;20937;-67
2022/05/20 06:40:55;;;;;;;31.23;28.00;;;22.80;81.50;;;;;;4993873;28;20841;-67
2022/05/20 06:43:22;;;;;;;33.60;30.20;;;23.00;80.70;;;;;;4993877;28;20458;-67
2022/05/20 06:45:51;;;;;;;30.27;27.07;;;23.20;79.00;;;;;;4994010;28;20455;-68
2022/05/20 06:48:19;;;;;;;29.00;26.00;;;23.30;77.00;;;;;;4994120;28;20467;-69
2022/05/20 06:50:47;;;;;;;29.43;25.27;;;23.40;76.70;;;;;;4993786;28;20456;-69
2022/05/20 06:53:13;;;;;;;23.73;21.43;;;23.50;76.50;;;;;;4993770;28;20460;-69
2022/05/20 06:55:40;;;;;;;28.53;25.60;;;23.70;76.60;;;;;;4993719;28;20455;-68
2022/05/20 06:58:07;;;;;;;23.80;21.37;;;23.80;75.50;;;;;;4993530;28;20492;-69
2022/05/20 07:00:33;;;;;;;32.23;28.10;;;23.90;75.00;;;;;;4993297;28;20504;-69
2022/05/20 07:03:00;;;;;;;26.17;23.50;;;23.90;75.10;;;;;;4993547;28;20448;-69
2022/05/20 07:05:28;;;;;;;26.10;23.30;;;24.00;75.40;;;;;;4994422;28;20456;-69
2022/05/20 07:07:56;;;;;;;22.83;20.43;;;24.10;74.90;;;;;;4997222;28;20471;-68
2022/05/20 07:10:23;;;;;;;28.40;25.27;;;24.10;74.00;;;;;;4997289;28;20479;-69
2022/05/20 07:12:50;;;;;;;25.33;21.20;;;24.10;74.10;;;;;;4996782;28;20444;-69
2022/05/20 07:15:16;;;;;;;28.00;24.93;;;24.20;74.40;;;;;;4996982;28;20459;-69
2022/05/20 07:17:48;;;;;;;27.13;23.77;;;24.20;74.50;;;;;;4996827;28;20479;-68
2022/05/20 07:20:15;;;;;;;24.37;20.47;;;24.20;74.50;;;;;;4997027;28;20435;-69
2022/05/20 07:22:42;;;;;;;24.03;21.00;;;24.30;74.30;;;;;;4996824;28;20448;-69
2022/05/20 07:25:11;;;;;;;29.07;24.93;;;24.50;74.00;;;;;;4996799;28;20575;-69
2022/05/20 07:27:38;;;;;;;21.43;19.23;;;24.60;73.50;;;;;;4996631;28;20468;-68
2022/05/20 07:30:06;;;;;;;19.97;17.93;;;24.80;72.70;;;;;;4996563;28;20471;-68
2022/05/20 07:32:33;;;;;;;21.97;19.73;;;24.90;71.60;;;;;;4996708;28;20455;-69
2022/05/20 07:34:59;;;;;;;24.40;19.70;;;25.10;70.60;;;;;;4996615;28;20479;-69
2022/05/20 07:37:26;;;;;;;20.87;18.60;;;25.30;69.70;;;;;;4996599;28;20476;-68
2022/05/20 07:39:53;;;;;;;22.57;19.23;;;25.40;68.40;;;;;;4996433;28;20484;-69
2022/05/20 07:42:21;;;;;;;23.23;20.80;;;25.50;67.50;;;;;;4996636;28;20499;-69
2022/05/20 07:44:48;;;;;;;22.33;18.83;;;25.70;67.50;;;;;;4996556;28;20495;-68
2022/05/20 07:47:15;;;;;;;23.80;21.37;;;25.90;67.40;;;;;;4996561;28;20834;-68
2022/05/20 07:49:42;;;;;;;25.57;21.97;;;26.10;66.60;;;;;;4996491;28;20523;-68
2022/05/20 07:52:12;;;;;;;25.53;21.97;;;26.30;66.00;;;;;;4996517;28;20443;-69
2022/05/20 07:54:43;;;;;;;24.07;18.50;;;26.50;65.40;;;;;;4996404;28;20444;-69
2022/05/20 07:57:14;;;;;;;21.67;19.27;;;26.70;63.60;;;;;;4996458;28;20428;-68
2022/05/20 07:59:46;;;;;;;31.50;27.43;;;26.90;62.70;;;;;;4996578;28;20940;-68
2022/05/20 08:02:15;;;;;;;25.80;21.43;;;27.00;61.30;;;;;;4996513;28;20436;-69
2022/05/20 08:05:00;;;;;;;17.37;15.57;;;27.20;59.80;;;;;;4996750;28;20483;-70
2022/05/20 08:07:34;;;;;;;20.40;18.00;;;27.50;59.40;;;;;;4996691;28;20888;-68
2022/05/20 08:10:01;;;;;;;20.63;18.37;;;27.90;59.00;;;;;;4997835;28;20901;-69
2022/05/20 08:12:28;;;;;;;21.20;18.40;;;28.30;57.90;;;;;;4998434;28;20444;-69
2022/05/20 08:14:56;;;;;;;24.73;19.53;;;28.50;56.80;;;;;;4998147;28;20451;-69
2022/05/20 08:17:25;;;;;;;23.97;21.40;;;28.70;56.00;;;;;;4996656;28;20460;-68
2022/05/20 08:19:52;;;;;;;23.07;19.90;;;28.90;55.40;;;;;;4997199;28;21013;-69
2022/05/20 08:22:22;;;;;;;20.00;17.90;;;29.00;55.20;;;;;;4995923;28;20456;-69
2022/05/20 08:24:52;;;;;;;29.93;26.90;;;29.10;55.50;;;;;;4995548;28;20950;-69
2022/05/20 08:27:19;;;;;;;23.03;20.23;;;29.10;54.30;;;;;;4995863;28;20901;-69
2022/05/20 08:29:45;;;;;;;22.60;19.73;;;29.20;53.90;;;;;;4995764;28;20448;-68
2022/05/20 08:32:15;;;;;;;31.37;28.00;;;29.20;53.80;;;;;;4995702;28;20448;-69
2022/05/20 08:34:42;;;;;;;24.83;22.40;;;29.40;53.40;;;;;;4995707;28;20458;-70
2022/05/20 08:37:09;;;;;;;28.70;24.70;;;29.30;53.20;;;;;;4995591;28;20483;-68
2022/05/20 08:39:36;;;;;;;24.20;21.80;;;29.20;54.30;;;;;;4995171;28;21001;-68
2022/05/20 08:42:04;;;;;;;25.53;22.47;;;29.00;54.50;;;;;;4995580;28;20448;-69
2022/05/20 08:44:34;;;;;;;24.07;21.53;;;29.00;54.80;;;;;;4995567;28;20850;-68
2022/05/20 08:47:16;;;;;;;24.33;21.47;;;29.10;55.20;;;;;;4995132;28;20942;-68
2022/05/20 08:49:43;;;;;;;24.37;20.50;;;29.10;55.30;;;;;;4995081;28;20440;-68
2022/05/20 08:52:10;;;;;;;23.47;21.10;;;29.10;55.30;;;;;;4995255;28;20458;-68
2022/05/20 08:54:36;;;;;;;21.13;19.13;;;29.20;56.20;;;;;;4995199;28;20452;-68
2022/05/20 08:57:16;;;;;;;19.73;17.93;;;29.10;55.40;;;;;;4995027;28;20460;-68
2022/05/20 08:59:43;;;;;;;20.90;18.87;;;29.20;55.30;;;;;;4995460;28;20506;-68
2022/05/20 09:02:09;;;;;;;20.27;18.17;;;29.20;55.10;;;;;;4995026;28;20487;-69
2022/05/20 09:04:37;;;;;;;21.43;19.43;;;29.30;54.90;;;;;;4994976;28;20448;-69
2022/05/20 09:07:08;;;;;;;20.97;18.93;;;29.40;54.60;;;;;;4995020;28;20448;-67
2022/05/20 09:09:44;;;;;;;20.37;18.03;;;29.50;54.40;;;;;;4995013;28;20425;-66
2022/05/20 09:12:24;;;;;;;24.77;22.60;;;29.50;53.90;;;;;;4994973;28;20432;-66
2022/05/20 09:17:48;;;;;;;31.43;28.10;;;29.80;54.30;;;;;;4994892;28;20598;-68
2022/05/20 09:20:20;;;;;;;21.27;19.37;;;29.90;52.70;;;;;;4994812;28;20519;-67
2022/05/20 09:22:56;;;;;;;26.67;23.97;;;30.10;52.50;;;;;;4994909;28;20819;-67
2022/05/20 09:25:27;;;;;;;33.30;30.50;;;30.20;51.70;;;;;;4994783;28;20439;-67
2022/05/20 09:27:58;;;;;;;31.43;28.70;;;30.20;51.40;;;;;;4994682;28;20522;-67
2022/05/20 09:30:25;;;;;;;27.93;25.33;;;30.30;51.50;;;;;;4993976;28;20436;-67
2022/05/20 09:33:01;;;;;;;22.13;20.23;;;30.40;51.60;;;;;;4995018;28;20440;-67
2022/05/20 09:35:35;;;;;;;26.97;24.57;;;30.70;52.10;;;;;;4994752;28;20436;-67
2022/05/20 09:38:10;;;;;;;31.20;28.50;;;31.10;51.30;;;;;;4995027;28;20474;-67
2022/05/20 09:40:41;;;;;;;25.40;23.20;;;31.40;50.20;;;;;;4994452;28;20474;-67
2022/05/20 09:43:21;;;;;;;24.33;22.03;;;31.80;49.30;;;;;;4994622;28;20458;-67
2022/05/20 09:45:50;;;;;;;22.57;20.57;;;32.10;48.70;;;;;;4995105;28;20486;-67
2022/05/20 09:48:22;;;;;;;29.13;26.80;;;32.50;48.10;;;;;;4994624;28;20467;-68
2022/05/20 09:51:05;;;;;;;22.87;21.10;;;32.80;47.10;;;;;;4994806;28;20424;-67
2022/05/20 09:53:35;;;;;;;21.73;19.83;;;33.10;46.90;;;;;;4994468;28;20439;-67
2022/05/20 09:56:22;;;;;;;26.27;24.07;;;33.40;46.20;;;;;;4994427;28;20801;-67
2022/05/20 09:59:20;;;;;;;25.57;23.50;;;33.80;45.50;;;;;;4994317;28;20495;-68
2022/05/20 10:01:57;;;;;;;26.07;23.97;;;34.00;44.40;;;;;;4971342;28;20467;-67
2022/05/20 10:04:38;;;;;;;24.43;22.43;;;34.20;43.60;;;;;;4994334;28;20443;-67
2022/05/20 10:07:13;;;;;;;25.70;23.70;;;34.30;43.30;;;;;;4994177;28;20432;-67
2022/05/20 10:09:44;;;;;;;21.73;19.70;;;34.40;43.10;;;;;;4993898;28;20936;-67
2022/05/20 10:12:18;;;;;;;21.90;20.20;;;34.50;43.40;;;;;;4994253;28;20459;-68
2022/05/20 10:14:52;;;;;;;22.03;20.13;;;34.60;43.10;;;;;;4993947;28;20922;-67
2022/05/20 10:17:34;;;;;;;23.00;21.17;;;34.70;42.70;;;;;;4993974;28;20486;-68
2022/05/20 10:20:08;;;;;;;22.73;20.50;;;34.80;42.20;;;;;;4994003;28;20464;-67
2022/05/20 10:22:48;;;;;;;23.37;21.63;;;34.90;41.80;;;;;;4993749;28;20966;-67
2022/05/20 10:25:24;;;;;;;21.57;19.87;;;35.20;41.60;;;;;;4994052;28;20444;-67
2022/05/20 10:27:58;;;;;;;18.87;17.33;;;35.50;41.10;;;;;;4994039;28;20475;-68
2022/05/20 10:33:20;;;;;;;17.13;15.70;;;36.20;40.00;;;;;;4994428;28;20817;-68
2022/05/20 10:36:02;;;;;;;17.57;15.73;;;36.70;39.50;;;;;;4994038;28;20439;-68
2022/05/20 10:38:58;;;;;;;15.60;14.30;;;37.10;37.60;;;;;;4993885;28;20235;-67
2022/05/20 10:41:42;;;;;;;16.90;15.50;;;37.20;36.80;;;;;;4997262;28;20188;-68
2022/05/20 10:50:12;;;;;;;13.55;12.35;;;37.90;34.90;;;;;;4997831;28;20195;-67
2022/05/20 10:53:00;;;;;;;15.20;14.02;;;38.30;33.60;;;;;;4997638;28;20197;-67
2022/05/20 10:55:47;;;;;;;12.70;11.70;;;38.80;33.50;;;;;;4997448;28;20251;-67
2022/05/20 10:58:50;;;;;;;14.45;13.25;;;39.30;32.20;;;;;;4997267;28;20224;-67
2022/05/20 11:01:27;;;;;;;12.55;11.15;;;40.10;30.60;;;;;;4997039;28;20713;-67
2022/05/20 11:04:22;;;;;;;11.40;10.38;;;40.70;29.60;;;;;;4997437;28;20195;-68
2022/05/20 11:07:16;;;;;;;15.15;13.82;;;41.30;29.00;;;;;;4997371;28;20193;-67
2022/05/20 11:09:53;;;;;;;15.77;14.45;;;41.60;27.60;;;;;;4993430;28;20211;-67
2022/05/20 11:12:27;;;;;;;11.48;10.07;;;41.60;28.00;;;;;;4998049;28;20536;-67
2022/05/20 11:15:23;;;;;;;11.98;10.98;;;41.80;28.20;;;;;;4997301;28;20219;-68
2022/05/20 11:18:26;;;;;;;10.48;9.32;;;42.00;28.20;;;;;;4997153;28;20220;-68
2022/05/20 11:21:11;;;;;;;12.15;11.05;;;42.40;27.50;;;;;;4996860;28;20224;-68
2022/05/20 11:24:03;;;;;;;12.77;10.88;;;42.80;27.40;;;;;;4996735;28;20193;-68
2022/05/20 11:26:48;;;;;;;12.40;11.00;;;43.20;26.90;;;;;;4997013;28;20252;-68
2022/05/20 11:29:45;;;;;;;13.70;12.55;;;43.40;25.70;;;;;;4997069;28;20227;-68
2022/05/20 11:32:14;;;;;;;10.98;9.13;;;43.40;25.00;;;;;;4997167;28;20199;-67
2022/05/20 11:35:07;;;;;;;9.55;8.70;;;43.20;25.60;;;;;;4996999;28;20204;-67
2022/05/20 11:37:58;;;;;;;10.90;9.93;;;43.10;26.10;;;;;;4996863;28;20737;-67
2022/05/20 11:40:37;;;;;;;10.68;9.68;;;43.10;26.20;;;;;;4997063;28;20259;-67
2022/05/20 11:43:21;;;;;;;10.75;9.75;;;43.20;25.90;;;;;;4997096;28;20189;-67
2022/05/20 11:46:00;;;;;;;9.18;8.48;;;43.20;25.70;;;;;;4997373;28;20256;-68
2022/05/20 11:48:44;;;;;;;9.65;8.88;;;43.00;26.20;;;;;;4997688;28;20224;-68
2022/05/20 11:51:26;;;;;;;9.07;8.18;;;42.60;26.60;;;;;;4997698;28;20646;-68
2022/05/20 11:53:58;;;;;;;8.45;7.72;;;41.90;27.10;;;;;;4997772;28;20188;-68
2022/05/20 11:56:30;;;;;;;9.60;8.85;;;41.10;28.20;;;;;;4997902;28;20193;-68
2022/05/20 11:59:03;;;;;;;11.65;10.65;;;40.20;29.20;;;;;;4997647;28;20221;-68
2022/05/20 12:01:32;;;;;;;9.55;8.75;;;39.30;30.00;;;;;;5012383;28;20212;-66
2022/05/20 12:04:08;;;;;;;9.50;8.60;;;38.40;31.40;;;;;;5015862;28;20208;-67
2022/05/20 12:06:37;;;;;;;9.50;8.63;;;37.50;32.80;;;;;;5015852;28;20194;-67
2022/05/20 12:09:25;;;;;;;11.47;10.47;;;36.60;34.30;;;;;;5015669;28;20274;-67
2022/05/20 12:12:11;;;;;;;12.40;11.33;;;35.90;35.80;;;;;;5015679;28;20188;-67
2022/05/20 12:14:59;;;;;;;13.50;12.40;;;34.80;37.10;;;;;;5015657;28;20427;-67
2022/05/20 12:17:33;;;;;;;12.60;11.50;;;33.80;39.30;;;;;;5015266;28;20972;-67
2022/05/20 12:26:23;;;;;;;14.27;12.57;;;31.40;46.90;;;;;;5014191;28;20430;-67
2022/05/20 12:28:50;;;;;;;11.73;10.63;;;30.70;49.70;;;;;;5015383;28;20822;-66
2022/05/20 12:31:25;;;;;;;14.77;13.33;;;30.20;51.10;;;;;;5015301;28;20528;-67
2022/05/20 12:33:56;;;;;;;14.27;13.00;;;29.80;53.30;;;;;;5015417;28;20430;-67
2022/05/20 12:36:33;;;;;;;15.90;13.90;;;29.50;54.80;;;;;;5014967;28;20924;-67
2022/05/20 12:39:18;;;;;;;15.20;13.90;;;29.20;56.70;;;;;;5015006;28;20469;-67
2022/05/20 12:41:58;;;;;;;16.13;14.47;;;28.90;59.10;;;;;;5015181;28;20423;-67
2022/05/20 12:44:36;;;;;;;14.53;13.00;;;28.70;62.10;;;;;;5015110;28;20434;-67
2022/05/20 12:47:28;;;;;;;17.23;15.83;;;28.40;64.70;;;;;;5014983;28;20427;-67
2022/05/20 12:50:04;;;;;;;19.60;14.63;;;28.20;67.70;;;;;;5015073;28;20462;-67
2022/05/20 12:52:34;;;;;;;17.73;15.93;;;28.00;70.60;;;;;;5010200;28;20456;-67
2022/05/20 12:55:12;;;;;;;17.90;16.00;;;27.80;72.40;;;;;;4995315;28;20428;-67
2022/05/20 12:57:49;;;;;;;21.07;18.87;;;27.70;74.20;;;;;;4995303;28;20495;-67
2022/05/20 13:00:17;;;;;;;21.10;17.50;;;27.40;78.30;;;;;;4994791;28;20900;-67
2022/05/20 13:02:47;;;;;;;20.03;17.97;;;27.10;79.40;;;;;;4995128;28;20455;-67
2022/05/20 13:05:20;;;;;;;23.10;10.37;;;26.80;80.80;;;;;;4994886;28;20459;-68
2022/05/20 13:07:48;;;;;;;18.00;4.77;;;26.60;79.60;;;;;;4995134;28;20480;-69
2022/05/20 13:10:24;;;;;;;18.67;5.60;;;26.00;73.80;;;;;;4995099;28;20433;-68
2022/05/20 13:12:53;;;;;;;8.33;3.80;;;25.40;77.50;;;;;;4995729;28;20475;-67
2022/05/20 13:15:20;;;;;;;4.63;2.30;;;25.10;79.60;;;;;;5014452;28;20447;-67
2022/05/20 13:17:57;;;;;;;3.70;2.13;;;25.00;80.80;;;;;;5014439;28;20471;-68
2022/05/20 13:20:27;;;;;;;4.07;2.00;;;25.00;82.30;;;;;;5014586;28;20542;-66
2022/05/20 13:23:00;;;;;;;1.90;1.60;;;25.10;83.70;;;;;;5014347;28;20958;-66
2022/05/20 13:25:26;;;;;;;2.70;1.67;;;25.30;83.80;;;;;;5014742;28;20471;-66
2022/05/20 13:27:53;;;;;;;2.27;2.07;;;25.70;83.60;;;;;;5014201;28;20964;-65
2022/05/20 13:30:25;;;;;;;3.73;3.00;;;26.20;82.40;;;;;;5014033;28;20913;-66